Lutsen, Minnesota
Current Conditions -  °F | °C
As of 12:34 AM on Tuesday 21 Oct 2014 (Local Time) from KCKC Reporting Station
Overcast Overcast  
Wind Chill: 30°   Ceiling: 1300
Heat Index: 36°   Visibility: 10mi
Dew Point: 28°   Wind: 7mph
Humidity: 75%   Direction: 30°NNE
Pressure: 30.15"   Gusts: NA
Location:  47.65°N, 90.68°W
Report Text: KCKC 210534Z AUTO 03006KT 10SM OVC013 02/M02 A3015 RMK AO2
Loading
Personal Weather Stations






























Interactive Weather Map
Tropical Storm Tracking
New forecast layout! Learn more

10-Day Weather Forecast

Advertisements
Track Severe Weather on mobile